Aeroporto :
LOGIN :

Iscrizione | Disclaimer

   EN    FR    IT 

 










Sommario :    VFR   VFR Marginale   IFR   IFR Intensivo   IFR Molto Intensivo
Visibilità : 
Base nubi : 
>= 8 km
>= 3000ft
5 / 8 km
1000 / 3000 ft
1500m / 5 km
500 / 1000 ft
800 / 1500m
200 / 500 ft
< 800m
< 200 ft
Simboli :   Temporali  Nebbia  Neve Forte  Precipitazioni Forti  Vento > 20 kt
SIGMETs :   Varie  Temporali  Ghiacco  Turbolenza  Onda orograficha  Ceneri Vulcaniche






- Altitudine del aeroporto : 56 ft
- Codice IATA : ILY


EGPI - Islay

ULTIMO METAR :
  • 251120Z 15016KT 9999 FEW025 14/09 Q1029

METARs OBSOLETI :
  • 251050Z 14017KT 110V200 9999 FEW025 13/09 Q1029
  • 251020Z 15016KT 120V180 9999 FEW025 14/09 Q1029
  • 250950Z 15015KT 9999 FEW025 14/09 Q1029
  • 250920Z 16013KT 120V200 9999 FEW022 15/10 Q1029
  • 250850Z 15013KT 9999 FEW020 14/09 Q1029

TAF TAF EGPI
Valido dal 25 a 09 ore il 25 a 18 ore UTC


250803Z 2509/2518 14012KT 9999 FEW020
TEMPO 2509/2513 15015G25KT
BECMG 2513/2516 20009KT
PROB30
TEMPO 2514/2518 6000 RA BKN014



MetMap, La meteo Aeronautica in un colpo d'occhio ! - Copyright ORBIFLY Dicembre 2007 - Disclaimer

ORBIFLY MET'MAP TEAM :

Programmazione e sviluppo : Alexandra Zaïnal
Concezione : Baudouin d'Aumeries
Aiuto per la programmazione : Marc-Olivier Méhu
Supporto tecnico e logistico : Manuel Goepfert
Aiuto per la traduzione : Arnaldo La Scala

Contatto : metmap@orbifly.com




FONTI E CREDITI :

   NOAA